createdAt,value
2018-05-16T00:02:12.415Z,12.53
2018-05-16T00:04:40.670Z,13.50
2018-05-16T00:07:08.156Z,13.67
2018-05-16T00:09:35.687Z,13.10
2018-05-16T00:12:03.163Z,13.40
2018-05-16T00:14:31.418Z,12.53
2018-05-16T00:16:58.897Z,13.17
2018-05-16T00:19:27.128Z,14.60
2018-05-16T00:21:54.707Z,15.10
2018-05-16T00:24:22.189Z,14.60
2018-05-16T00:26:50.439Z,19.50
2018-05-16T00:29:17.919Z,19.40
2018-05-16T00:31:46.162Z,20.33
2018-05-16T00:34:13.761Z,20.90
2018-05-16T00:36:41.227Z,22.47
2018-05-16T00:39:08.698Z,23.63
2018-05-16T00:41:36.209Z,20.90
2018-05-16T00:44:03.683Z,23.27
2018-05-16T00:46:31.928Z,24.10
2018-05-16T00:48:59.549Z,24.40
2018-05-16T00:51:31.455Z,23.30
2018-05-16T00:53:58.941Z,23.33
2018-05-16T00:56:26.482Z,23.00
2018-05-16T00:58:54.722Z,21.73
2018-05-16T01:01:22.229Z,21.70
2018-05-16T01:03:50.463Z,21.43
2018-05-16T01:06:17.968Z,21.40
2018-05-16T01:08:45.442Z,22.33
2018-05-16T01:11:12.957Z,21.87
2018-05-16T01:13:40.444Z,21.60
2018-05-16T01:16:07.913Z,21.07
2018-05-16T01:18:35.473Z,21.87
2018-05-16T01:21:02.934Z,23.20
2018-05-16T01:23:30.415Z,19.87
2018-05-16T01:25:58.003Z,19.70
2018-05-16T01:28:26.280Z,21.77
2018-05-16T01:30:54.509Z,22.90
2018-05-16T01:33:22.008Z,20.20
2018-05-16T01:35:49.486Z,21.10
2018-05-16T01:38:17.748Z,20.57
2018-05-16T01:40:46.016Z,21.37
2018-05-16T01:43:13.588Z,21.30
2018-05-16T01:45:42.590Z,20.80
2018-05-16T01:48:10.991Z,20.27
2018-05-16T01:50:38.457Z,21.20
2018-05-16T01:53:05.963Z,21.30
2018-05-16T01:55:34.210Z,23.53
2018-05-16T01:58:01.684Z,20.30
2018-05-16T02:00:29.157Z,22.00
2018-05-16T02:02:57.399Z,22.23
2018-05-16T02:05:24.874Z,22.70
2018-05-16T02:07:52.439Z,22.57
2018-05-16T02:10:20.439Z,22.77
2018-05-16T02:12:47.922Z,23.97
2018-05-16T02:15:15.390Z,23.77
2018-05-16T02:17:42.888Z,23.80
2018-05-16T02:20:11.197Z,21.93
2018-05-16T02:22:38.594Z,24.10
2018-05-16T02:25:06.066Z,23.90
2018-05-16T02:27:33.632Z,26.10
2018-05-16T02:30:01.888Z,24.23
2018-05-16T02:32:29.444Z,24.43
2018-05-16T02:34:56.922Z,24.03
2018-05-16T02:37:25.166Z,25.10
2018-05-16T02:39:52.626Z,23.87
2018-05-16T02:42:20.111Z,24.10
2018-05-16T02:44:47.673Z,25.17
2018-05-16T02:47:15.929Z,23.80
2018-05-16T02:49:43.500Z,25.30
2018-05-16T02:52:10.959Z,25.27
2018-05-16T02:54:39.231Z,23.67
2018-05-16T02:57:06.699Z,23.83
2018-05-16T02:59:34.938Z,25.67
2018-05-16T03:02:02.468Z,24.40
2018-05-16T03:04:29.930Z,25.90
2018-05-16T03:06:57.424Z,25.03
2018-05-16T03:09:24.912Z,26.00
2018-05-16T03:11:52.381Z,24.20
2018-05-16T03:14:19.851Z,24.37
2018-05-16T03:16:47.344Z,25.23
2018-05-16T03:19:14.824Z,26.47
2018-05-16T03:21:43.092Z,25.10
2018-05-16T03:24:10.651Z,25.13
2018-05-16T03:26:38.205Z,25.90
2018-05-16T03:29:05.690Z,26.70
2018-05-16T03:31:33.183Z,26.47
2018-05-16T03:34:00.667Z,25.53
2018-05-16T03:36:28.151Z,25.67
2018-05-16T03:38:56.382Z,26.93
2018-05-16T03:41:23.856Z,24.90
2018-05-16T03:43:51.480Z,26.33
2018-05-16T03:46:18.943Z,27.27
2018-05-16T03:48:46.407Z,26.60
2018-05-16T03:51:13.896Z,25.27
2018-05-16T03:53:41.464Z,27.87
2018-05-16T03:56:09.011Z,26.23
2018-05-16T03:58:48.554Z,27.43
2018-05-16T04:01:27.930Z,26.03
2018-05-16T04:04:19.157Z,27.10
2018-05-16T04:06:46.648Z,27.30
2018-05-16T04:09:14.176Z,29.00
2018-05-16T04:11:41.651Z,31.23
2018-05-16T04:14:09.111Z,31.27
2018-05-16T04:16:36.736Z,28.53
2018-05-16T04:19:04.166Z,30.63
2018-05-16T04:21:32.425Z,30.83
2018-05-16T04:23:59.982Z,31.80
2018-05-16T04:26:27.647Z,32.83
2018-05-16T04:28:55.157Z,30.77
2018-05-16T04:31:23.372Z,31.50
2018-05-16T04:33:50.942Z,31.20
2018-05-16T04:36:19.213Z,29.87
2018-05-16T04:38:46.789Z,31.40
2018-05-16T04:41:15.100Z,31.77
2018-05-16T04:43:42.578Z,31.53
2018-05-16T04:46:10.163Z,30.40
2018-05-16T04:48:37.639Z,26.80
2018-05-16T04:51:05.904Z,30.73
2018-05-16T04:53:34.188Z,30.13
2018-05-16T04:56:02.503Z,31.17
2018-05-16T04:58:29.979Z,31.50
2018-05-16T05:00:57.567Z,31.40
2018-05-16T05:03:24.967Z,29.60
2018-05-16T05:05:52.448Z,30.57
2018-05-16T05:08:19.920Z,27.83
2018-05-16T05:10:47.393Z,29.10
2018-05-16T05:13:14.885Z,30.33
2018-05-16T05:15:42.460Z,28.97
2018-05-16T05:18:10.180Z,29.07
2018-05-16T05:20:38.323Z,28.70
2018-05-16T05:23:05.910Z,28.70
2018-05-16T05:25:33.400Z,26.97
2018-05-16T05:28:00.873Z,26.30
2018-05-16T05:30:28.346Z,27.90
2018-05-16T05:32:55.832Z,27.23
2018-05-16T05:35:23.290Z,27.67
2018-05-16T05:37:50.851Z,28.37
2018-05-16T05:40:18.460Z,27.60
2018-05-16T05:42:45.962Z,26.70
2018-05-16T05:45:13.527Z,26.50
2018-05-16T05:47:40.990Z,25.77
2018-05-16T05:50:09.228Z,26.23
2018-05-16T05:52:36.712Z,26.23
2018-05-16T05:55:04.241Z,26.17
2018-05-16T05:57:31.727Z,27.00
2018-05-16T06:00:00.063Z,25.63
2018-05-16T06:02:28.337Z,24.40
2018-05-16T06:04:55.846Z,26.07
2018-05-16T06:07:24.119Z,27.00
2018-05-16T06:09:51.588Z,24.80
2018-05-16T06:12:19.897Z,23.60
2018-05-16T06:14:47.403Z,24.60
2018-05-16T06:17:15.046Z,23.80
2018-05-16T06:19:42.735Z,26.00
2018-05-16T06:22:10.173Z,23.20
2018-05-16T06:24:37.649Z,23.87
2018-05-16T06:27:05.931Z,23.20
2018-05-16T06:29:34.202Z,21.77
2018-05-16T06:32:02.435Z,22.43
2018-05-16T06:34:29.976Z,24.50
2018-05-16T06:36:57.453Z,22.70
2018-05-16T06:39:24.934Z,22.80
2018-05-16T06:41:52.589Z,22.13
2018-05-16T06:44:20.771Z,21.97
2018-05-16T06:46:49.760Z,24.57
2018-05-16T06:49:17.327Z,22.50
2018-05-16T06:51:46.295Z,23.43
2018-05-16T06:54:13.793Z,21.30
2018-05-16T06:56:42.045Z,23.43
2018-05-16T06:59:11.043Z,20.63
2018-05-16T07:01:38.507Z,24.20
2018-05-16T07:04:06.075Z,22.00
2018-05-16T07:06:34.326Z,23.00
2018-05-16T07:09:01.787Z,21.47
2018-05-16T07:11:29.255Z,22.10
2018-05-16T07:13:56.812Z,20.47
2018-05-16T07:16:25.779Z,22.50
2018-05-16T07:18:53.270Z,22.87
2018-05-16T07:21:21.506Z,22.73
2018-05-16T07:23:48.986Z,20.97
2018-05-16T07:26:17.987Z,20.97
2018-05-16T07:28:45.542Z,21.83
2018-05-16T07:31:13.094Z,20.83
2018-05-16T07:33:40.555Z,22.03
2018-05-16T07:36:08.115Z,21.33
2018-05-16T07:38:35.587Z,20.90
2018-05-16T07:41:03.873Z,19.13
2018-05-16T07:43:31.409Z,18.63
2018-05-16T07:45:58.896Z,19.00
2018-05-16T07:48:26.367Z,17.30
2018-05-16T07:50:53.871Z,18.97
2018-05-16T07:53:21.432Z,18.10
2018-05-16T07:55:48.991Z,18.00
2018-05-16T07:58:16.454Z,18.60
2018-05-16T08:00:43.941Z,18.07
2018-05-16T08:03:12.271Z,18.07
2018-05-16T08:05:39.731Z,19.37
2018-05-16T08:08:07.292Z,17.27
2018-05-16T08:10:34.754Z,19.00
2018-05-16T08:13:02.234Z,16.40
2018-05-16T08:15:30.495Z,17.87
2018-05-16T08:17:57.964Z,17.13
2018-05-16T08:20:26.198Z,18.00
2018-05-16T08:22:53.682Z,15.43
2018-05-16T08:25:21.162Z,15.90
2018-05-16T08:27:48.691Z,17.40
2018-05-16T08:30:16.968Z,17.47
2018-05-16T08:32:45.203Z,15.10
2018-05-16T08:35:12.705Z,15.00
2018-05-16T08:37:40.256Z,15.50
2018-05-16T08:40:07.808Z,14.10
2018-05-16T08:42:36.051Z,13.57
2018-05-16T08:45:03.513Z,14.60
2018-05-16T08:47:30.985Z,13.70
2018-05-16T08:49:58.474Z,13.03
2018-05-16T08:52:26.738Z,12.03
2018-05-16T08:54:54.348Z,12.43
2018-05-16T08:57:21.817Z,13.00
2018-05-16T08:59:49.285Z,12.63
2018-05-16T09:02:16.755Z,10.73
2018-05-16T09:04:44.236Z,12.57
2018-05-16T09:07:12.491Z,13.27
2018-05-16T09:09:39.953Z,12.10
2018-05-16T09:12:08.186Z,12.10
2018-05-16T09:14:35.656Z,12.10
2018-05-16T09:17:03.164Z,11.23
2018-05-16T09:19:31.406Z,11.90
2018-05-16T09:21:58.969Z,10.87
2018-05-16T09:24:27.951Z,10.20
2018-05-16T09:26:55.420Z,10.80
2018-05-16T09:29:22.893Z,11.13
2018-05-16T09:31:50.358Z,11.03
2018-05-16T09:34:18.616Z,10.20
2018-05-16T09:36:46.085Z,9.40
2018-05-16T09:39:14.316Z,9.40
2018-05-16T09:41:41.795Z,9.53
2018-05-16T09:44:09.284Z,9.50
2018-05-16T09:46:37.531Z,9.10
2018-05-16T09:49:04.997Z,8.50
2018-05-16T09:51:33.361Z,8.70
2018-05-16T09:54:01.523Z,9.17
2018-05-16T09:56:28.995Z,8.23
2018-05-16T09:58:56.463Z,8.37
2018-05-16T10:01:23.930Z,10.23
2018-05-16T10:03:52.169Z,9.47
2018-05-16T10:06:19.631Z,7.87
2018-05-16T10:08:47.112Z,8.03
2018-05-16T10:11:14.575Z,7.00
2018-05-16T10:13:42.832Z,7.20
2018-05-16T10:16:10.391Z,7.17
2018-05-16T10:18:37.842Z,6.43
2018-05-16T10:21:05.300Z,6.60
2018-05-16T10:23:32.772Z,5.93
2018-05-16T10:26:00.254Z,6.40
2018-05-16T10:28:27.747Z,6.70
2018-05-16T10:30:55.209Z,6.60
2018-05-16T10:33:22.687Z,6.13
2018-05-16T10:35:50.142Z,6.50
2018-05-16T10:38:17.656Z,8.03
2018-05-16T10:40:45.153Z,7.30
2018-05-16T10:43:12.664Z,5.80
2018-05-16T10:45:40.113Z,5.90
2018-05-16T10:48:07.582Z,5.83
2018-05-16T10:50:35.045Z,5.30
2018-05-16T10:53:02.507Z,5.63
2018-05-16T10:55:30.010Z,4.73
2018-05-16T10:57:57.458Z,3.90
2018-05-16T11:00:24.953Z,5.30
2018-05-16T11:02:52.491Z,4.90
2018-05-16T11:05:20.018Z,5.17
2018-05-16T11:07:47.494Z,4.93
2018-05-16T11:10:14.956Z,4.73
2018-05-16T11:12:42.494Z,4.80
2018-05-16T11:15:10.051Z,5.00
2018-05-16T11:17:37.678Z,4.90
2018-05-16T11:20:05.153Z,4.27
2018-05-16T11:22:32.610Z,5.17
2018-05-16T11:25:00.132Z,4.53
2018-05-16T11:27:27.590Z,4.40
2018-05-16T11:29:55.063Z,5.47
2018-05-16T11:32:22.563Z,4.77
2018-05-16T11:34:50.023Z,5.03
2018-05-16T11:37:17.479Z,4.90
2018-05-16T11:39:45.027Z,4.77
2018-05-16T11:42:12.610Z,5.20
2018-05-16T11:44:40.081Z,7.47
2018-05-16T11:47:08.335Z,5.60
2018-05-16T11:49:35.875Z,6.03
2018-05-16T11:52:03.429Z,5.50
2018-05-16T11:54:30.891Z,5.30
2018-05-16T11:56:58.451Z,6.30
2018-05-16T11:59:25.914Z,5.67
2018-05-16T12:01:53.379Z,5.20
2018-05-16T12:04:20.926Z,6.00
2018-05-16T12:06:48.487Z,6.20
2018-05-16T12:09:16.490Z,5.93
2018-05-16T12:11:44.012Z,4.80
2018-05-16T12:14:11.569Z,6.00
2018-05-16T12:16:39.130Z,5.60
2018-05-16T12:19:06.686Z,5.97
2018-05-16T12:21:34.191Z,6.33
2018-05-16T12:24:01.631Z,5.53
2018-05-16T12:26:29.883Z,5.70
2018-05-16T12:28:57.548Z,5.40
2018-05-16T12:31:24.926Z,4.70
2018-05-16T12:33:53.168Z,5.07
2018-05-16T12:36:20.626Z,5.70
2018-05-16T12:38:48.096Z,5.50
2018-05-16T12:41:16.339Z,5.57
2018-05-16T12:43:43.817Z,5.40
2018-05-16T12:46:11.276Z,5.27
2018-05-16T12:48:38.742Z,5.40
2018-05-16T12:51:06.218Z,5.93
2018-05-16T12:53:34.439Z,6.30
2018-05-16T12:56:01.906Z,4.80
2018-05-16T12:58:29.383Z,4.80
2018-05-16T13:00:56.858Z,5.30
2018-05-16T13:03:24.344Z,5.27
2018-05-16T13:05:51.817Z,4.97
2018-05-16T13:08:19.308Z,5.50
2018-05-16T13:10:46.791Z,4.50
2018-05-16T13:13:15.041Z,4.93
2018-05-16T13:15:43.325Z,5.03
2018-05-16T13:18:11.023Z,4.70
2018-05-16T13:20:38.392Z,4.60
2018-05-16T13:23:05.856Z,4.10
2018-05-16T13:25:33.307Z,3.70
2018-05-16T13:28:00.768Z,5.17
2018-05-16T13:30:28.264Z,3.87
2018-05-16T13:32:55.727Z,4.03
2018-05-16T13:35:23.210Z,4.47
2018-05-16T13:37:50.684Z,5.20
2018-05-16T13:40:18.153Z,4.17
2018-05-16T13:42:45.728Z,4.50
2018-05-16T13:45:13.188Z,3.90
2018-05-16T13:47:40.642Z,3.77
2018-05-16T13:50:08.209Z,3.63
2018-05-16T13:52:35.680Z,3.83
2018-05-16T13:55:03.129Z,4.10
2018-05-16T13:57:30.595Z,3.43
2018-05-16T13:59:58.147Z,4.13
2018-05-16T14:02:25.614Z,4.10
2018-05-16T14:04:53.835Z,5.00
2018-05-16T14:07:21.309Z,4.70
2018-05-16T14:09:48.771Z,4.90
2018-05-16T14:12:16.256Z,4.23
2018-05-16T14:14:43.819Z,4.67
2018-05-16T14:17:11.294Z,4.27
2018-05-16T14:19:38.757Z,4.90
2018-05-16T14:22:06.330Z,4.07
2018-05-16T14:24:33.835Z,3.40
2018-05-16T14:27:01.305Z,4.20
2018-05-16T14:29:29.565Z,4.80
2018-05-16T14:31:57.070Z,4.70
2018-05-16T14:34:24.574Z,4.03
2018-05-16T14:36:52.134Z,4.20
2018-05-16T14:39:19.602Z,4.40
2018-05-16T14:41:47.046Z,4.30
2018-05-16T14:44:14.529Z,6.00
2018-05-16T14:46:42.796Z,5.47
2018-05-16T14:49:10.344Z,3.80
2018-05-16T14:51:37.827Z,4.00
2018-05-16T14:54:06.054Z,3.97
2018-05-16T14:56:33.536Z,4.07
2018-05-16T14:59:01.086Z,4.70
2018-05-16T15:01:29.307Z,4.97
2018-05-16T15:03:56.844Z,5.53
2018-05-16T15:06:25.111Z,5.90
2018-05-16T15:08:52.594Z,5.17
2018-05-16T15:11:20.109Z,4.90
2018-05-16T15:13:47.663Z,5.17
2018-05-16T15:16:15.223Z,4.73
2018-05-16T15:18:42.692Z,4.50
2018-05-16T15:21:10.292Z,5.00
2018-05-16T15:23:37.872Z,4.33
2018-05-16T15:26:05.327Z,3.60
2018-05-16T15:28:32.804Z,3.40
2018-05-16T15:31:00.275Z,3.87
2018-05-16T15:33:27.834Z,3.80
2018-05-16T15:35:55.387Z,4.70
2018-05-16T15:38:23.043Z,4.47
2018-05-16T15:40:50.404Z,3.57
2018-05-16T15:43:17.890Z,4.00
2018-05-16T15:45:46.144Z,4.13
2018-05-16T15:48:13.695Z,3.93
2018-05-16T15:50:41.150Z,3.57
2018-05-16T15:53:12.407Z,4.40
2018-05-16T15:55:39.875Z,3.90
2018-05-16T15:58:08.102Z,4.03
2018-05-16T16:00:35.579Z,4.00
2018-05-16T16:03:03.170Z,4.30
2018-05-16T16:05:31.412Z,4.50
2018-05-16T16:07:58.864Z,4.33
2018-05-16T16:10:26.371Z,4.03
2018-05-16T16:12:53.939Z,4.77
2018-05-16T16:15:21.514Z,4.53
2018-05-16T16:17:48.972Z,4.23
2018-05-16T16:20:16.438Z,4.43
2018-05-16T16:22:43.905Z,5.40
2018-05-16T16:25:11.378Z,5.70
2018-05-16T16:27:38.841Z,4.90
2018-05-16T16:30:06.306Z,5.30
2018-05-16T16:32:33.916Z,4.77
2018-05-16T16:35:01.945Z,5.00
2018-05-16T16:37:29.491Z,4.70
2018-05-16T16:39:56.947Z,5.57
2018-05-16T16:42:24.413Z,5.10
2018-05-16T16:44:51.918Z,5.07
2018-05-16T16:47:19.363Z,4.57
2018-05-16T16:49:46.875Z,4.53
2018-05-16T16:52:14.334Z,5.00
2018-05-16T16:54:41.807Z,5.43
2018-05-16T16:57:10.241Z,5.00
2018-05-16T16:59:37.511Z,4.50
2018-05-16T17:02:04.970Z,5.07
2018-05-16T17:04:32.440Z,4.73
2018-05-16T17:06:59.911Z,5.20
2018-05-16T17:09:28.267Z,4.63
2018-05-16T17:11:56.439Z,5.10
2018-05-16T17:14:23.895Z,6.23
2018-05-16T17:16:51.454Z,5.23
2018-05-16T17:19:18.906Z,4.70
2018-05-16T17:21:46.380Z,5.43
2018-05-16T17:24:14.740Z,4.80
2018-05-16T17:26:42.889Z,5.70
2018-05-16T17:29:10.349Z,5.23
2018-05-16T17:31:37.824Z,5.40
2018-05-16T17:34:05.339Z,5.17
2018-05-16T17:36:32.824Z,5.13
2018-05-16T17:39:00.305Z,5.63
2018-05-16T17:41:27.763Z,5.60
2018-05-16T17:43:55.317Z,4.80
2018-05-16T17:46:22.786Z,7.00
2018-05-16T17:48:50.241Z,5.60
2018-05-16T17:51:17.791Z,5.30
2018-05-16T17:53:45.355Z,5.00
2018-05-16T17:56:14.338Z,5.20
2018-05-16T17:58:41.799Z,5.50
2018-05-16T18:01:09.279Z,5.23
2018-05-16T18:03:37.602Z,5.20
2018-05-16T18:06:05.158Z,6.00
2018-05-16T18:08:32.624Z,5.70
2018-05-16T18:11:00.114Z,5.70
2018-05-16T18:16:47.138Z,5.93
2018-05-16T18:19:14.621Z,5.93
2018-05-16T18:21:42.889Z,6.37
2018-05-16T18:24:11.122Z,5.97
2018-05-16T18:26:38.603Z,6.33
2018-05-16T18:29:06.174Z,6.10
2018-05-16T18:31:33.724Z,6.07
2018-05-16T18:34:02.007Z,6.63
2018-05-16T18:36:30.270Z,6.03
2018-05-16T18:38:57.730Z,5.90
2018-05-16T18:41:25.286Z,7.23
2018-05-16T18:43:52.848Z,6.57
2018-05-16T18:46:20.290Z,6.50
2018-05-16T18:48:47.763Z,7.63
2018-05-16T18:51:15.223Z,6.30
2018-05-16T18:53:42.684Z,6.30
2018-05-16T18:56:10.914Z,6.20
2018-05-16T18:58:38.406Z,6.43
2018-05-16T19:01:05.871Z,6.77
2018-05-16T19:03:34.108Z,6.90
2018-05-16T19:06:01.585Z,6.07
2018-05-16T19:08:29.158Z,6.70
2018-05-16T19:10:56.614Z,7.10
2018-05-16T19:13:24.088Z,7.40
2018-05-16T19:15:52.320Z,7.33
2018-05-16T19:18:19.787Z,7.20
2018-05-16T19:20:47.259Z,8.00
2018-05-16T19:23:14.720Z,7.17
2018-05-16T19:25:42.974Z,8.03
2018-05-16T19:28:10.434Z,7.37
2018-05-16T19:30:37.902Z,7.97
2018-05-16T19:33:05.464Z,8.07
2018-05-16T19:35:33.010Z,7.50
2018-05-16T19:38:00.584Z,8.27
2018-05-16T19:40:28.935Z,8.37
2018-05-16T19:42:57.099Z,6.70
2018-05-16T19:45:24.566Z,7.53
2018-05-16T19:47:52.048Z,7.83
2018-05-16T19:50:20.295Z,7.70
2018-05-16T19:52:47.855Z,7.67
2018-05-16T19:55:15.346Z,7.43
2018-05-16T19:57:43.604Z,8.07
2018-05-16T20:00:11.166Z,7.93
2018-05-16T20:02:38.718Z,7.50
2018-05-16T20:05:06.184Z,7.43
2018-05-16T20:07:33.793Z,8.60
2018-05-16T20:10:01.269Z,7.17
2018-05-16T20:12:28.760Z,9.90
2018-05-16T20:14:56.347Z,8.00
2018-05-16T20:17:24.453Z,8.57
2018-05-16T20:19:51.917Z,8.47
2018-05-16T20:22:19.383Z,8.10
2018-05-16T20:24:46.971Z,7.90
2018-05-16T20:27:14.512Z,9.03
2018-05-16T20:29:41.988Z,7.70
2018-05-16T20:32:10.234Z,8.43
2018-05-16T20:34:37.706Z,8.67
2018-05-16T20:37:05.255Z,7.77
2018-05-16T20:39:32.799Z,8.50
2018-05-16T20:42:00.300Z,8.30
2018-05-16T20:44:28.558Z,8.33
2018-05-16T20:46:56.173Z,7.10
2018-05-16T20:49:23.622Z,8.43
2018-05-16T20:51:51.080Z,8.30
2018-05-16T20:54:18.550Z,8.47
2018-05-16T20:56:46.018Z,8.50
2018-05-16T20:59:13.473Z,8.60
2018-05-16T21:01:40.944Z,7.87
2018-05-16T21:04:08.399Z,9.23
2018-05-16T21:06:35.967Z,8.17
2018-05-16T21:09:03.432Z,8.30
2018-05-16T21:11:30.887Z,7.27
2018-05-16T21:13:58.358Z,8.80
2018-05-16T21:16:26.606Z,8.57
2018-05-16T21:18:54.070Z,9.43
2018-05-16T21:21:21.539Z,8.10
2018-05-16T21:23:48.995Z,8.87
2018-05-16T21:26:16.536Z,8.80
2018-05-16T21:28:44.843Z,7.80
2018-05-16T21:31:12.266Z,8.40
2018-05-16T21:33:39.830Z,8.37
2018-05-16T21:36:07.326Z,6.93
2018-05-16T21:38:34.855Z,9.00
2018-05-16T21:41:02.320Z,8.63
2018-05-16T21:43:29.774Z,8.10
2018-05-16T21:45:58.063Z,8.60
2018-05-16T21:48:26.279Z,8.17
2018-05-16T21:50:53.749Z,8.43
2018-05-16T21:53:21.216Z,8.10
2018-05-16T21:55:48.707Z,8.73
2018-05-16T21:58:16.927Z,9.70
2018-05-16T22:00:44.478Z,10.40
2018-05-16T22:03:11.934Z,9.20
2018-05-16T22:05:39.401Z,10.10
2018-05-16T22:08:06.897Z,9.67
2018-05-16T22:10:34.488Z,9.57
2018-05-16T22:13:02.718Z,9.20
2018-05-16T22:15:30.229Z,10.07
2018-05-16T22:17:57.697Z,9.53
2018-05-16T22:20:25.158Z,9.90
2018-05-16T22:22:52.674Z,9.50
2018-05-16T22:25:20.926Z,9.27
2018-05-16T22:27:48.481Z,9.07
2018-05-16T22:30:16.303Z,10.00
2018-05-16T22:32:49.407Z,9.67
2018-05-16T22:35:22.651Z,8.50
2018-05-16T22:37:56.579Z,8.83
2018-05-16T22:40:29.783Z,8.60
2018-05-16T22:42:56.804Z,8.30
2018-05-16T22:45:31.035Z,9.57
2018-05-16T22:47:58.555Z,9.23
2018-05-16T22:50:26.036Z,8.13
2018-05-16T22:52:54.338Z,8.80
2018-05-16T22:55:21.843Z,8.87
2018-05-16T22:57:49.334Z,9.80
2018-05-16T23:00:18.590Z,9.13
2018-05-16T23:02:46.836Z,9.43
2018-05-16T23:05:14.311Z,8.63
2018-05-16T23:07:41.878Z,8.57
2018-05-16T23:10:09.344Z,9.17
2018-05-16T23:12:36.802Z,8.07
2018-05-16T23:15:04.313Z,8.80
2018-05-16T23:17:31.781Z,8.50
2018-05-16T23:19:59.273Z,9.40
2018-05-16T23:22:26.833Z,8.70
2018-05-16T23:24:54.308Z,7.90
2018-05-16T23:27:22.533Z,8.83
2018-05-16T23:29:50.006Z,8.30
2018-05-16T23:32:17.584Z,9.60
2018-05-16T23:34:46.557Z,9.20
2018-05-16T23:37:14.022Z,9.80
2018-05-16T23:39:41.482Z,9.70
2018-05-16T23:42:08.943Z,10.33
2018-05-16T23:44:36.431Z,9.30
2018-05-16T23:47:03.961Z,10.07
2018-05-16T23:49:31.510Z,10.13
2018-05-16T23:51:59.076Z,9.23
2018-05-16T23:54:27.344Z,8.50
2018-05-16T23:56:54.904Z,9.23
2018-05-16T23:59:22.377Z,9.83
